Time;durP1;ratioP1;P1;durP2;ratioP2;P2;SDS_P1;SDS_P2;PMS_P1;PMS_P2;Temp;Humidity;BMP_temperature;BMP_pressure;BME280_temperature;BME280_humidity;BME280_pressure;Samples;Min_cycle;Max_cycle;Signal;HPM_P1;HPM_P2
2024/03/16 00:01:26;;;;;;;24.90;10.15;;;;;;;;;;6161534;23;20171;-90
2024/03/16 00:04:32;;;;;;;17.13;9.10;;;;;;;;;;6163810;23;20167;-89
2024/03/16 00:07:37;;;;;;;20.60;9.82;;;;;;;;;;6161954;23;20195;-88
2024/03/16 00:10:46;;;;;;;20.25;9.68;;;;;;;;;;6162624;23;20180;-87
2024/03/16 00:13:54;;;;;;;17.40;8.57;;;;;;;;;;6163630;23;20187;-89
2024/03/16 00:17:03;;;;;;;33.92;17.38;;;;;;;;;;6161967;23;20172;-89
2024/03/16 00:20:10;;;;;;;16.02;8.15;;;;;;;;;;6160716;23;20195;-89
2024/03/16 00:23:19;;;;;;;16.48;7.88;;;;;;;;;;6161610;23;20171;-88
2024/03/16 00:26:25;;;;;;;13.82;7.35;;;;;;;;;;6163432;23;20171;-89
2024/03/16 00:29:30;;;;;;;13.40;7.72;;;;;;;;;;6161547;23;20267;-89
2024/03/16 00:32:41;;;;;;;13.75;7.78;;;;;;;;;;6163687;23;20504;-89
2024/03/16 00:35:50;;;;;;;14.32;8.32;;;;;;;;;;6162495;23;20247;-87
2024/03/16 00:38:55;;;;;;;13.93;7.47;;;;;;;;;;6160075;23;20175;-88
2024/03/16 00:42:02;;;;;;;16.08;7.97;;;;;;;;;;6161600;23;20207;-89
2024/03/16 00:45:10;;;;;;;18.90;8.90;;;;;;;;;;6161048;23;20227;-89
2024/03/16 00:48:15;;;;;;;16.48;8.60;;;;;;;;;;6161269;23;20243;-88
2024/03/16 00:51:21;;;;;;;17.60;8.85;;;;;;;;;;6161603;23;20237;-88
2024/03/16 00:54:26;;;;;;;16.02;8.07;;;;;;;;;;6160164;23;20261;-88
2024/03/16 00:57:32;;;;;;;19.35;9.10;;;;;;;;;;6160982;23;20631;-88
2024/03/16 01:00:37;;;;;;;17.38;9.02;;;;;;;;;;6161204;23;20167;-89
2024/03/16 01:03:47;;;;;;;14.68;7.60;;;;;;;;;;6162110;23;20172;-89
2024/03/16 01:06:52;;;;;;;17.48;8.85;;;;;;;;;;6161340;23;20266;-88
2024/03/16 01:09:58;;;;;;;13.95;8.10;;;;;;;;;;6159993;23;20200;-89
2024/03/16 01:13:08;;;;;;;14.57;8.13;;;;;;;;;;6162322;23;20152;-90
2024/03/16 01:16:13;;;;;;;14.10;7.85;;;;;;;;;;6178376;23;20627;-88
2024/03/16 01:19:18;;;;;;;16.15;8.88;;;;;;;;;;6160085;23;20168;-89
2024/03/16 01:22:23;;;;;;;13.93;8.05;;;;;;;;;;6161225;23;20190;-89
2024/03/16 01:25:28;;;;;;;13.02;7.93;;;;;;;;;;6159250;23;20979;-88
2024/03/16 01:28:33;;;;;;;17.48;8.80;;;;;;;;;;6158982;23;20195;-88
2024/03/16 01:31:38;;;;;;;17.60;9.15;;;;;;;;;;6160117;23;20167;-88
2024/03/16 01:34:44;;;;;;;19.38;9.18;;;;;;;;;;6159438;23;20215;-88
2024/03/16 01:37:51;;;;;;;23.40;9.30;;;;;;;;;;6159532;23;20175;-87
2024/03/16 01:40:56;;;;;;;19.85;9.43;;;;;;;;;;6159206;23;20168;-89
2024/03/16 01:44:03;;;;;;;17.55;8.98;;;;;;;;;;6160052;23;20253;-89
2024/03/16 01:47:09;;;;;;;18.75;9.43;;;;;;;;;;6178233;23;20292;-90
2024/03/16 01:50:14;;;;;;;19.55;8.90;;;;;;;;;;6161216;23;20195;-89
2024/03/16 01:53:20;;;;;;;20.75;10.15;;;;;;;;;;6159446;23;20263;-90
2024/03/16 01:56:25;;;;;;;67.45;10.15;;;;;;;;;;6161111;23;20739;-89
2024/03/16 01:59:30;;;;;;;18.40;9.38;;;;;;;;;;6178123;23;20218;-89
2024/03/16 02:02:36;;;;;;;18.20;9.52;;;;;;;;;;6159173;23;20164;-89
2024/03/16 02:05:42;;;;;;;19.60;10.45;;;;;;;;;;6160294;23;20253;-90
2024/03/16 02:08:47;;;;;;;21.70;10.43;;;;;;;;;;6161398;23;20195;-89
2024/03/16 02:11:52;;;;;;;17.60;9.43;;;;;;;;;;6160577;23;20168;-89
2024/03/16 02:14:57;;;;;;;16.70;9.38;;;;;;;;;;6158273;23;20167;-89
2024/03/16 02:18:02;;;;;;;19.52;9.75;;;;;;;;;;6159818;23;20175;-88
2024/03/16 02:21:10;;;;;;;18.85;9.05;;;;;;;;;;6160147;23;20168;-89
2024/03/16 02:24:15;;;;;;;18.65;9.48;;;;;;;;;;6161476;23;20184;-90
2024/03/16 02:27:21;;;;;;;17.73;9.27;;;;;;;;;;6162780;23;20172;-89
2024/03/16 02:30:26;;;;;;;16.85;9.23;;;;;;;;;;6161426;23;20211;-89
2024/03/16 02:33:31;;;;;;;16.67;9.40;;;;;;;;;;6164625;23;20172;-89
2024/03/16 02:36:36;;;;;;;18.65;9.80;;;;;;;;;;6163635;23;20171;-90
2024/03/16 02:39:41;;;;;;;19.25;9.50;;;;;;;;;;6163218;23;20171;-90
2024/03/16 02:42:47;;;;;;;24.85;10.93;;;;;;;;;;6162709;23;20468;-89
2024/03/16 02:45:53;;;;;;;17.90;9.27;;;;;;;;;;6162550;23;20167;-89
2024/03/16 02:48:58;;;;;;;18.10;9.13;;;;;;;;;;6163843;23;20244;-88
2024/03/16 02:52:04;;;;;;;17.08;9.15;;;;;;;;;;6162815;23;20490;-88
2024/03/16 02:55:10;;;;;;;22.00;10.30;;;;;;;;;;6163335;23;20168;-89
2024/03/16 02:58:15;;;;;;;19.20;9.85;;;;;;;;;;6163590;23;20204;-89
2024/03/16 03:01:20;;;;;;;20.02;9.85;;;;;;;;;;6163173;23;20167;-89
2024/03/16 03:04:26;;;;;;;16.00;9.48;;;;;;;;;;6164320;23;20176;-88
2024/03/16 03:07:32;;;;;;;19.75;9.25;;;;;;;;;;6162676;23;20187;-89
2024/03/16 03:10:41;;;;;;;17.52;8.90;;;;;;;;;;6163596;23;20199;-90
2024/03/16 03:13:47;;;;;;;16.05;8.75;;;;;;;;;;6164918;23;20211;-89
2024/03/16 03:16:53;;;;;;;15.45;8.85;;;;;;;;;;6162404;23;20172;-90
2024/03/16 03:19:59;;;;;;;15.68;9.00;;;;;;;;;;6163757;23;20172;-89
2024/03/16 03:23:05;;;;;;;16.55;8.07;;;;;;;;;;6162784;23;20911;-89
2024/03/16 03:26:10;;;;;;;15.48;8.38;;;;;;;;;;6163336;23;20172;-89
2024/03/16 03:29:15;;;;;;;18.60;9.38;;;;;;;;;;6162623;23;20250;-89
2024/03/16 03:32:21;;;;;;;15.55;9.13;;;;;;;;;;6179842;23;20172;-90
2024/03/16 03:35:26;;;;;;;15.68;8.27;;;;;;;;;;6161194;23;20245;-90
2024/03/16 03:38:31;;;;;;;13.38;8.43;;;;;;;;;;6161190;23;20212;-88
2024/03/16 03:41:37;;;;;;;17.33;9.25;;;;;;;;;;6165337;23;20151;-89
2024/03/16 03:44:50;;;;;;;16.95;9.23;;;;;;;;;;6171118;23;20168;-90
2024/03/16 03:48:02;;;;;;;18.95;9.48;;;;;;;;;;6169038;23;20172;-86
2024/03/16 03:51:08;;;;;;;19.08;10.57;;;;;;;;;;6166398;23;20167;-88
2024/03/16 03:54:13;;;;;;;19.40;10.60;;;;;;;;;;6168667;23;20164;-89
2024/03/16 03:57:18;;;;;;;17.15;9.88;;;;;;;;;;6167280;23;20609;-87
2024/03/16 04:00:24;;;;;;;18.65;10.05;;;;;;;;;;6167934;23;20175;-89
2024/03/16 04:03:29;;;;;;;24.10;10.35;;;;;;;;;;6170753;23;20171;-90
2024/03/16 04:06:35;;;;;;;17.63;10.18;;;;;;;;;;6164861;23;20223;-88
2024/03/16 04:09:46;;;;;;;23.02;9.98;;;;;;;;;;6162258;23;20194;-88
2024/03/16 04:12:52;;;;;;;15.68;9.27;;;;;;;;;;6163883;23;20215;-89
2024/03/16 04:15:57;;;;;;;22.60;10.23;;;;;;;;;;6161966;23;20168;-88
2024/03/16 04:19:03;;;;;;;15.82;7.95;;;;;;;;;;6161125;23;20163;-88
2024/03/16 04:22:08;;;;;;;13.73;6.15;;;;;;;;;;6160298;23;20226;-89
2024/03/16 04:25:13;;;;;;;10.20;5.00;;;;;;;;;;6160668;23;20176;-89
2024/03/16 04:28:19;;;;;;;10.02;3.40;;;;;;;;;;6162483;23;20155;-88
2024/03/16 04:31:24;;;;;;;8.38;3.13;;;;;;;;;;6162797;23;20192;-89
2024/03/16 04:34:29;;;;;;;4.78;2.75;;;;;;;;;;6161543;23;20223;-88
2024/03/16 04:37:35;;;;;;;9.55;2.85;;;;;;;;;;6161672;23;20251;-88
2024/03/16 04:40:40;;;;;;;5.25;2.58;;;;;;;;;;6162227;23;20167;-90
2024/03/16 04:43:47;;;;;;;6.43;2.60;;;;;;;;;;6163721;23;20164;-91
2024/03/16 04:46:52;;;;;;;3.97;2.33;;;;;;;;;;6170111;23;20180;-89
2024/03/16 04:49:57;;;;;;;8.40;2.42;;;;;;;;;;6168221;23;20179;-89
2024/03/16 04:53:03;;;;;;;4.03;2.30;;;;;;;;;;6162099;23;20148;-89
2024/03/16 04:56:08;;;;;;;4.32;2.00;;;;;;;;;;6162725;23;20245;-89
2024/03/16 04:59:14;;;;;;;4.32;1.83;;;;;;;;;;6168801;23;20193;-87
2024/03/16 05:02:20;;;;;;;4.10;2.13;;;;;;;;;;6168870;23;20171;-91
2024/03/16 05:05:25;;;;;;;3.83;2.20;;;;;;;;;;6166718;23;20238;-91
2024/03/16 05:08:31;;;;;;;4.05;2.50;;;;;;;;;;6165176;23;20176;-89
2024/03/16 05:11:37;;;;;;;3.35;2.00;;;;;;;;;;6164817;23;20179;-89
2024/03/16 05:14:42;;;;;;;6.70;2.22;;;;;;;;;;6162481;23;20172;-88
2024/03/16 05:17:47;;;;;;;5.35;2.42;;;;;;;;;;6164230;23;20163;-89
2024/03/16 05:20:53;;;;;;;7.40;3.15;;;;;;;;;;6167518;23;20166;-88
2024/03/16 05:23:59;;;;;;;6.35;1.98;;;;;;;;;;6183089;23;20163;-88
2024/03/16 05:27:07;;;;;;;5.68;2.70;;;;;;;;;;6165762;23;20183;-88
2024/03/16 05:30:15;;;;;;;4.47;2.10;;;;;;;;;;6165338;23;20196;-89
2024/03/16 05:33:20;;;;;;;8.68;2.10;;;;;;;;;;6167242;23;20176;-90
2024/03/16 05:36:26;;;;;;;4.32;2.10;;;;;;;;;;6163587;23;20221;-89
2024/03/16 05:39:32;;;;;;;6.75;2.25;;;;;;;;;;6165273;23;20167;-90
2024/03/16 05:42:38;;;;;;;6.63;2.30;;;;;;;;;;6165006;23;20176;-88
2024/03/16 05:45:43;;;;;;;5.25;2.20;;;;;;;;;;6159067;23;20171;-87
2024/03/16 05:48:49;;;;;;;5.72;2.20;;;;;;;;;;6182837;23;20240;-89
2024/03/16 05:51:54;;;;;;;7.80;3.28;;;;;;;;;;6160013;23;20167;-88
2024/03/16 05:54:59;;;;;;;7.57;2.78;;;;;;;;;;6176265;23;20168;-91
2024/03/16 05:58:05;;;;;;;9.63;2.85;;;;;;;;;;6167113;23;20176;-89
2024/03/16 06:01:10;;;;;;;6.60;2.10;;;;;;;;;;6169541;23;20163;-88
2024/03/16 06:04:18;;;;;;;4.55;2.00;;;;;;;;;;6168095;23;20152;-88
2024/03/16 06:07:24;;;;;;;5.60;1.95;;;;;;;;;;6170051;23;20190;-90
2024/03/16 06:10:29;;;;;;;3.78;1.60;;;;;;;;;;6168144;23;20195;-88
2024/03/16 06:13:35;;;;;;;4.32;1.40;;;;;;;;;;6168407;23;20168;-88
2024/03/16 06:16:40;;;;;;;5.68;1.50;;;;;;;;;;6160810;23;20167;-88
2024/03/16 06:19:49;;;;;;;3.10;1.77;;;;;;;;;;6163768;23;20155;-89
2024/03/16 06:22:56;;;;;;;9.43;2.60;;;;;;;;;;6162738;23;20172;-89
2024/03/16 06:26:05;;;;;;;4.03;2.00;;;;;;;;;;6160377;23;20171;-88
2024/03/16 06:29:12;;;;;;;5.15;1.92;;;;;;;;;;6163859;23;20167;-88
2024/03/16 06:32:20;;;;;;;4.88;1.98;;;;;;;;;;6160563;23;20148;-90
2024/03/16 06:35:25;;;;;;;5.88;1.90;;;;;;;;;;6162100;23;20164;-88
2024/03/16 06:38:30;;;;;;;2.88;1.42;;;;;;;;;;6161468;23;20188;-90
2024/03/16 06:41:35;;;;;;;2.03;1.45;;;;;;;;;;6160094;23;20263;-89
2024/03/16 06:44:41;;;;;;;4.30;1.80;;;;;;;;;;6162244;23;20226;-89
2024/03/16 06:47:46;;;;;;;5.88;1.55;;;;;;;;;;6159891;23;20291;-89
2024/03/16 06:50:51;;;;;;;6.68;1.90;;;;;;;;;;6163128;23;20180;-89
2024/03/16 06:53:56;;;;;;;3.42;1.40;;;;;;;;;;6162759;23;20167;-89
2024/03/16 06:57:02;;;;;;;3.45;1.45;;;;;;;;;;6160395;23;20230;-89
2024/03/16 07:00:09;;;;;;;2.88;1.45;;;;;;;;;;6161886;23;20171;-89
2024/03/16 07:03:15;;;;;;;3.63;1.70;;;;;;;;;;6161242;23;20194;-88
2024/03/16 07:06:20;;;;;;;2.50;1.30;;;;;;;;;;6162103;23;20199;-87
2024/03/16 07:09:25;;;;;;;3.40;1.10;;;;;;;;;;6160966;23;20172;-88
2024/03/16 07:12:30;;;;;;;3.78;1.23;;;;;;;;;;6162319;23;20606;-89
2024/03/16 07:15:36;;;;;;;1.40;0.98;;;;;;;;;;6162129;23;20200;-88
2024/03/16 07:18:43;;;;;;;2.22;1.05;;;;;;;;;;6160996;23;20180;-88
2024/03/16 07:21:48;;;;;;;2.00;1.13;;;;;;;;;;6160418;23;20172;-88
2024/03/16 07:24:54;;;;;;;5.43;1.67;;;;;;;;;;6161510;23;20212;-88
2024/03/16 07:27:59;;;;;;;3.45;1.30;;;;;;;;;;6162411;23;20279;-89
2024/03/16 07:31:05;;;;;;;4.68;1.50;;;;;;;;;;6161017;23;20199;-89
2024/03/16 07:34:10;;;;;;;7.55;2.20;;;;;;;;;;6162599;23;20259;-88
2024/03/16 07:37:16;;;;;;;5.53;1.52;;;;;;;;;;6160806;23;20168;-88
2024/03/16 07:40:21;;;;;;;2.83;1.15;;;;;;;;;;6161168;23;20189;-90
2024/03/16 07:43:27;;;;;;;3.65;1.00;;;;;;;;;;6179427;23;20175;-89
2024/03/16 07:46:32;;;;;;;2.00;0.80;;;;;;;;;;6163200;23;20581;-87
2024/03/16 07:49:38;;;;;;;2.83;0.80;;;;;;;;;;6161807;23;20622;-90
2024/03/16 07:52:43;;;;;;;6.72;1.23;;;;;;;;;;6159283;23;20667;-87
2024/03/16 07:55:52;;;;;;;3.85;1.50;;;;;;;;;;6163717;23;20196;-89
2024/03/16 07:59:00;;;;;;;1.20;0.73;;;;;;;;;;6164347;23;20180;-88
2024/03/16 08:02:06;;;;;;;1.42;0.80;;;;;;;;;;6177348;23;20164;-88
2024/03/16 08:05:11;;;;;;;0.93;0.70;;;;;;;;;;6162651;23;20167;-89
2024/03/16 08:08:16;;;;;;;12.60;2.60;;;;;;;;;;6161522;23;20199;-88
2024/03/16 08:11:22;;;;;;;2.00;0.90;;;;;;;;;;6162753;23;20180;-89
2024/03/16 08:14:34;;;;;;;1.73;1.10;;;;;;;;;;6160496;23;20284;-88
2024/03/16 08:17:39;;;;;;;1.30;0.90;;;;;;;;;;6162237;23;20168;-88
2024/03/16 08:20:46;;;;;;;4.65;1.15;;;;;;;;;;6162544;23;20180;-89
2024/03/16 08:23:52;;;;;;;1.65;0.90;;;;;;;;;;6160907;23;20195;-90
2024/03/16 08:26:57;;;;;;;5.45;2.92;;;;;;;;;;6160860;23;20161;-89
2024/03/16 08:30:03;;;;;;;6.40;2.85;;;;;;;;;;6160532;23;20171;-89
2024/03/16 08:33:09;;;;;;;12.02;7.03;;;;;;;;;;6160788;23;20184;-89
2024/03/16 08:36:15;;;;;;;13.43;8.73;;;;;;;;;;6164376;23;20167;-90
2024/03/16 08:39:20;;;;;;;3.78;2.25;;;;;;;;;;6161314;23;20239;-90
2024/03/16 08:42:25;;;;;;;4.35;1.13;;;;;;;;;;6161416;23;20164;-91
2024/03/16 08:45:30;;;;;;;1.35;0.88;;;;;;;;;;6161802;23;20167;-89
2024/03/16 08:48:35;;;;;;;1.35;0.70;;;;;;;;;;6160955;23;20216;-90
2024/03/16 08:51:41;;;;;;;3.03;0.90;;;;;;;;;;6161521;23;20192;-89
2024/03/16 08:54:46;;;;;;;1.27;0.90;;;;;;;;;;6161263;23;20496;-89
2024/03/16 08:57:53;;;;;;;0.70;0.70;;;;;;;;;;6161254;23;20192;-89
2024/03/16 09:00:58;;;;;;;1.10;0.60;;;;;;;;;;6161683;23;20163;-89
2024/03/16 09:04:03;;;;;;;4.68;2.08;;;;;;;;;;6162950;23;20172;-90
2024/03/16 09:07:08;;;;;;;2.28;0.82;;;;;;;;;;6164102;23;20240;-89
2024/03/16 09:10:15;;;;;;;3.00;0.95;;;;;;;;;;6164337;23;20156;-89
2024/03/16 09:13:24;;;;;;;29.02;11.93;;;;;;;;;;6164510;23;20167;-88
2024/03/16 09:16:30;;;;;;;3.28;1.80;;;;;;;;;;6163832;23;20276;-88
2024/03/16 09:19:36;;;;;;;3.13;1.33;;;;;;;;;;6162991;23;20264;-89
2024/03/16 09:22:42;;;;;;;4.78;1.52;;;;;;;;;;6162006;23;20457;-89
2024/03/16 09:25:53;;;;;;;2.55;1.50;;;;;;;;;;6163700;23;20168;-89
2024/03/16 09:28:59;;;;;;;2.08;1.23;;;;;;;;;;6165077;23;20234;-89
2024/03/16 09:32:05;;;;;;;3.33;1.40;;;;;;;;;;6163924;23;20231;-88
2024/03/16 09:35:10;;;;;;;4.03;1.20;;;;;;;;;;6164296;23;20216;-90
2024/03/16 09:38:15;;;;;;;2.60;1.40;;;;;;;;;;6164294;23;20172;-89
2024/03/16 09:41:21;;;;;;;2.35;1.30;;;;;;;;;;6164371;23;20171;-90
2024/03/16 09:44:27;;;;;;;4.50;1.73;;;;;;;;;;6163913;23;20225;-88
2024/03/16 09:47:32;;;;;;;4.88;1.70;;;;;;;;;;6164169;23;20167;-89
2024/03/16 09:50:38;;;;;;;9.63;1.63;;;;;;;;;;6163685;23;20191;-91
2024/03/16 09:53:44;;;;;;;3.97;1.50;;;;;;;;;;6163371;23;20868;-90
2024/03/16 09:56:50;;;;;;;5.53;1.60;;;;;;;;;;6163688;23;20334;-89
2024/03/16 09:59:59;;;;;;;3.25;1.58;;;;;;;;;;6165660;23;20168;-87
2024/03/16 10:03:08;;;;;;;4.22;1.42;;;;;;;;;;6168109;23;20174;-89
2024/03/16 10:06:19;;;;;;;2.78;1.02;;;;;;;;;;6165793;23;20172;-88
2024/03/16 10:09:25;;;;;;;6.03;1.77;;;;;;;;;;6163284;23;20164;-90
2024/03/16 10:12:30;;;;;;;5.05;1.95;;;;;;;;;;6164522;23;20199;-89
2024/03/16 10:15:43;;;;;;;1.80;0.88;;;;;;;;;;6163204;23;20191;-87
2024/03/16 10:18:52;;;;;;;2.20;0.85;;;;;;;;;;6164319;23;20164;-89
2024/03/16 10:21:57;;;;;;;5.25;1.55;;;;;;;;;;6166032;23;20175;-89
2024/03/16 10:25:09;;;;;;;2.60;1.10;;;;;;;;;;6166157;23;20168;-89
2024/03/16 10:28:15;;;;;;;2.28;1.10;;;;;;;;;;6166047;23;20199;-89
2024/03/16 10:31:29;;;;;;;5.15;1.73;;;;;;;;;;6167067;23;20180;-91
2024/03/16 10:34:36;;;;;;;2.22;1.20;;;;;;;;;;6166934;23;20200;-90
2024/03/16 10:37:45;;;;;;;5.00;1.75;;;;;;;;;;6151456;23;20168;-89
2024/03/16 10:40:51;;;;;;;2.80;1.10;;;;;;;;;;6164055;23;20223;-89
2024/03/16 10:43:57;;;;;;;2.88;1.10;;;;;;;;;;6162735;23;20168;-89
2024/03/16 10:47:05;;;;;;;2.35;1.30;;;;;;;;;;6165431;23;20172;-88
2024/03/16 10:50:20;;;;;;;2.42;1.40;;;;;;;;;;6170538;23;20543;-89
2024/03/16 10:53:25;;;;;;;3.33;1.70;;;;;;;;;;6166407;23;20176;-91
2024/03/16 10:56:32;;;;;;;4.68;1.70;;;;;;;;;;6167179;23;20172;-88
2024/03/16 10:59:42;;;;;;;4.00;1.10;;;;;;;;;;6164545;23;20252;-90
2024/03/16 11:02:50;;;;;;;7.15;1.10;;;;;;;;;;6166938;23;20168;-90
2024/03/16 11:06:01;;;;;;;5.43;2.13;;;;;;;;;;6163407;23;20221;-90
2024/03/16 11:09:07;;;;;;;3.50;1.75;;;;;;;;;;6165965;23;20167;-91
2024/03/16 11:12:26;;;;;;;4.07;1.33;;;;;;;;;;6168245;23;20195;-89
2024/03/16 11:15:38;;;;;;;5.43;2.13;;;;;;;;;;6167901;23;20155;-89
2024/03/16 11:18:51;;;;;;;5.57;1.05;;;;;;;;;;6165630;23;20500;-88
2024/03/16 11:21:57;;;;;;;8.82;1.33;;;;;;;;;;6184787;23;20160;-88
2024/03/16 11:25:06;;;;;;;8.30;1.70;;;;;;;;;;6171719;23;20292;-90
2024/03/16 11:28:12;;;;;;;4.25;1.92;;;;;;;;;;6169519;23;20215;-88
2024/03/16 11:31:31;;;;;;;5.10;2.67;;;;;;;;;;6165563;23;20213;-89
2024/03/16 11:34:36;;;;;;;4.07;1.40;;;;;;;;;;6163830;23;20176;-88
2024/03/16 11:37:43;;;;;;;3.22;1.38;;;;;;;;;;6166568;23;20171;-89
2024/03/16 11:40:50;;;;;;;4.38;1.58;;;;;;;;;;6164539;23;20244;-88
2024/03/16 11:43:54;;;;;;;2.65;1.10;;;;;;;;;;6162680;23;20286;-89
2024/03/16 11:47:04;;;;;;;2.55;1.10;;;;;;;;;;6164608;23;20156;-89
2024/03/16 11:50:10;;;;;;;2.53;1.20;;;;;;;;;;6163191;23;20175;-87
2024/03/16 11:53:15;;;;;;;1.88;1.10;;;;;;;;;;6165381;23;20172;-88
2024/03/16 11:56:22;;;;;;;3.35;1.45;;;;;;;;;;6163636;23;20620;-89
2024/03/16 11:59:28;;;;;;;3.33;1.50;;;;;;;;;;6162714;23;20171;-89
2024/03/16 12:02:32;;;;;;;5.65;1.75;;;;;;;;;;6167253;23;20152;-89
2024/03/16 12:05:38;;;;;;;11.20;2.78;;;;;;;;;;6167586;23;20192;-89
2024/03/16 12:08:42;;;;;;;5.15;2.10;;;;;;;;;;6165100;23;20211;-89
2024/03/16 12:11:48;;;;;;;4.35;1.60;;;;;;;;;;6165602;23;20246;-88
2024/03/16 12:15:10;;;;;;;2.53;1.30;;;;;;;;;;6165046;23;20159;-89
2024/03/16 12:18:21;;;;;;;2.05;1.15;;;;;;;;;;6181419;23;20195;-89
2024/03/16 12:21:27;;;;;;;1.80;1.20;;;;;;;;;;6165554;23;20244;-88
2024/03/16 12:24:33;;;;;;;1.95;1.00;;;;;;;;;;6164528;23;20168;-90
2024/03/16 12:27:39;;;;;;;3.00;1.20;;;;;;;;;;6164090;23;20239;-89
2024/03/16 12:30:45;;;;;;;2.58;1.40;;;;;;;;;;6164651;23;20165;-88
2024/03/16 12:33:50;;;;;;;2.28;1.30;;;;;;;;;;6165274;23;20151;-89
2024/03/16 12:36:55;;;;;;;3.38;1.50;;;;;;;;;;6164553;23;20287;-89
2024/03/16 12:40:00;;;;;;;2.35;0.90;;;;;;;;;;6165576;23;20163;-89
2024/03/16 12:43:07;;;;;;;3.05;1.10;;;;;;;;;;6168079;23;20287;-88
2024/03/16 12:46:11;;;;;;;4.60;2.55;;;;;;;;;;6166464;23;20180;-88
2024/03/16 12:49:16;;;;;;;1.90;0.95;;;;;;;;;;6168774;23;20160;-90
2024/03/16 12:52:23;;;;;;;4.45;1.10;;;;;;;;;;6165719;23;20718;-90
2024/03/16 12:55:29;;;;;;;6.53;2.10;;;;;;;;;;6167264;23;20609;-88
2024/03/16 12:58:34;;;;;;;10.45;3.22;;;;;;;;;;6167168;23;20179;-88
2024/03/16 13:01:39;;;;;;;4.35;1.75;;;;;;;;;;6166048;23;20258;-88
2024/03/16 13:04:44;;;;;;;5.30;1.80;;;;;;;;;;6166065;23;20180;-89
2024/03/16 13:07:50;;;;;;;6.05;1.50;;;;;;;;;;6164616;23;20190;-89
2024/03/16 13:10:54;;;;;;;2.65;1.08;;;;;;;;;;6166746;23;20167;-90
2024/03/16 13:14:00;;;;;;;2.13;0.88;;;;;;;;;;6142796;23;20223;-89
2024/03/16 13:17:09;;;;;;;2.85;1.20;;;;;;;;;;6164587;23;20172;-89
2024/03/16 13:20:17;;;;;;;4.97;1.00;;;;;;;;;;6166498;23;20167;-89
2024/03/16 13:23:23;;;;;;;2.20;1.20;;;;;;;;;;6167087;23;20164;-89
2024/03/16 13:26:28;;;;;;;3.10;1.10;;;;;;;;;;6164913;23;20168;-89
2024/03/16 13:29:33;;;;;;;1.17;0.75;;;;;;;;;;6163129;23;20279;-90
2024/03/16 13:32:38;;;;;;;3.83;1.15;;;;;;;;;;6164736;23;20200;-90
2024/03/16 13:35:44;;;;;;;4.85;1.25;;;;;;;;;;6164765;23;20164;-89
2024/03/16 13:38:48;;;;;;;2.90;0.85;;;;;;;;;;6163436;23;20167;-91
2024/03/16 13:41:54;;;;;;;4.53;1.10;;;;;;;;;;6164700;23;20164;-90
2024/03/16 13:44:58;;;;;;;2.97;1.00;;;;;;;;;;6164721;23;20167;-90
2024/03/16 13:48:04;;;;;;;2.10;0.88;;;;;;;;;;6162113;23;20782;-89
2024/03/16 13:51:08;;;;;;;2.08;1.00;;;;;;;;;;6177176;23;20199;-89
2024/03/16 13:54:13;;;;;;;1.70;1.00;;;;;;;;;;6160935;23;20508;-89
2024/03/16 13:57:19;;;;;;;4.85;2.17;;;;;;;;;;6162144;23;20176;-89
2024/03/16 14:00:25;;;;;;;3.25;1.40;;;;;;;;;;6164028;23;20246;-90
2024/03/16 14:03:30;;;;;;;3.03;1.25;;;;;;;;;;6163523;23;20176;-88
2024/03/16 14:06:36;;;;;;;2.53;1.20;;;;;;;;;;6162643;23;20167;-89
2024/03/16 14:09:41;;;;;;;3.40;1.55;;;;;;;;;;6163044;23;20175;-89
2024/03/16 14:12:50;;;;;;;2.70;1.38;;;;;;;;;;6162484;23;20195;-89
2024/03/16 14:15:55;;;;;;;3.42;1.63;;;;;;;;;;6163276;23;20175;-88
2024/03/16 14:19:01;;;;;;;2.97;1.13;;;;;;;;;;6163358;23;20168;-88
2024/03/16 14:22:06;;;;;;;5.97;1.50;;;;;;;;;;6163757;23;20176;-89
2024/03/16 14:25:11;;;;;;;3.60;1.30;;;;;;;;;;6164370;23;20592;-88
2024/03/16 14:28:16;;;;;;;5.20;1.70;;;;;;;;;;6164476;23;20207;-89
2024/03/16 14:31:22;;;;;;;4.00;1.85;;;;;;;;;;6164502;23;20217;-89
2024/03/16 14:34:27;;;;;;;4.35;1.20;;;;;;;;;;6166775;23;20222;-88
2024/03/16 14:37:33;;;;;;;3.58;1.23;;;;;;;;;;6166883;23;20180;-89
2024/03/16 14:40:38;;;;;;;3.28;1.00;;;;;;;;;;6165464;23;20322;-89
2024/03/16 14:43:44;;;;;;;2.45;0.75;;;;;;;;;;6164727;23;20172;-88
2024/03/16 14:46:50;;;;;;;6.68;1.83;;;;;;;;;;6165824;23;20615;-88
2024/03/16 14:49:56;;;;;;;5.78;2.00;;;;;;;;;;6165658;23;20487;-90
2024/03/16 14:53:04;;;;;;;2.10;1.10;;;;;;;;;;6183385;23;20195;-89
2024/03/16 14:56:09;;;;;;;3.13;1.23;;;;;;;;;;6164698;23;20252;-88
2024/03/16 14:59:15;;;;;;;3.88;1.10;;;;;;;;;;6166139;23;20248;-89
2024/03/16 15:02:24;;;;;;;4.25;1.25;;;;;;;;;;6166954;23;20163;-88
2024/03/16 15:05:30;;;;;;;4.78;1.27;;;;;;;;;;6167029;23;20175;-89
2024/03/16 15:08:36;;;;;;;2.03;1.10;;;;;;;;;;6164152;23;20315;-90
2024/03/16 15:11:42;;;;;;;2.10;0.95;;;;;;;;;;6164026;23;20195;-88
2024/03/16 15:14:48;;;;;;;4.10;0.90;;;;;;;;;;6164659;23;20175;-87
2024/03/16 15:17:54;;;;;;;3.22;1.00;;;;;;;;;;6167687;23;20172;-88
2024/03/16 15:20:59;;;;;;;3.25;1.15;;;;;;;;;;6166700;23;20180;-88
2024/03/16 15:24:05;;;;;;;3.65;1.05;;;;;;;;;;6163850;23;20175;-89
2024/03/16 15:27:27;;;;;;;2.45;1.00;;;;;;;;;;6165244;23;20163;-90
2024/03/16 15:30:34;;;;;;;1.48;1.10;;;;;;;;;;6169012;23;20219;-89
2024/03/16 15:33:41;;;;;;;3.70;1.40;;;;;;;;;;6166178;23;20286;-88
2024/03/16 15:36:45;;;;;;;2.90;0.90;;;;;;;;;;6167660;23;20163;-89
2024/03/16 15:39:50;;;;;;;2.38;1.00;;;;;;;;;;6165763;23;20163;-89
2024/03/16 15:42:58;;;;;;;1.33;0.80;;;;;;;;;;6163406;23;20183;-89
2024/03/16 15:46:03;;;;;;;1.23;0.90;;;;;;;;;;6166501;23;20155;-90
2024/03/16 15:49:10;;;;;;;2.60;0.70;;;;;;;;;;6165381;23;20168;-89
2024/03/16 15:52:17;;;;;;;1.83;0.75;;;;;;;;;;6165709;23;20176;-89
2024/03/16 15:55:24;;;;;;;0.50;0.50;;;;;;;;;;6165115;23;20167;-88
2024/03/16 15:58:28;;;;;;;7.25;0.98;;;;;;;;;;6163025;23;20175;-91
2024/03/16 16:01:34;;;;;;;0.60;0.60;;;;;;;;;;6163333;23;20160;-88
2024/03/16 16:04:39;;;;;;;3.72;0.68;;;;;;;;;;6164654;23;20152;-90
2024/03/16 16:07:43;;;;;;;1.25;0.70;;;;;;;;;;6163907;23;20200;-89
2024/03/16 16:10:48;;;;;;;1.30;0.65;;;;;;;;;;6163223;23;20262;-90
2024/03/16 16:13:53;;;;;;;1.65;0.80;;;;;;;;;;6165744;23;20172;-89
2024/03/16 16:16:59;;;;;;;1.33;0.90;;;;;;;;;;6164933;23;20167;-89
2024/03/16 16:20:05;;;;;;;0.98;0.50;;;;;;;;;;6163755;23;20504;-91
2024/03/16 16:23:09;;;;;;;0.88;0.80;;;;;;;;;;6163714;23;20216;-89
2024/03/16 16:26:14;;;;;;;2.35;1.02;;;;;;;;;;6163570;23;20224;-88
2024/03/16 16:29:20;;;;;;;1.95;0.80;;;;;;;;;;6164295;23;20176;-88
2024/03/16 16:32:24;;;;;;;2.70;1.15;;;;;;;;;;6162856;23;20191;-87
2024/03/16 16:35:33;;;;;;;1.70;0.90;;;;;;;;;;6165991;23;20192;-89
2024/03/16 16:38:38;;;;;;;1.80;1.00;;;;;;;;;;6164351;23;20512;-88
2024/03/16 16:41:43;;;;;;;1.67;0.77;;;;;;;;;;6163993;23;20367;-89
2024/03/16 16:44:49;;;;;;;3.45;1.48;;;;;;;;;;6167041;23;20192;-90
2024/03/16 16:47:54;;;;;;;1.65;0.85;;;;;;;;;;6161950;23;20167;-89
2024/03/16 16:51:01;;;;;;;1.88;1.00;;;;;;;;;;6179479;23;20475;-89
2024/03/16 16:54:05;;;;;;;2.53;1.30;;;;;;;;;;6162134;23;20268;-87
2024/03/16 16:57:10;;;;;;;2.65;1.40;;;;;;;;;;6163539;23;20339;-89
2024/03/16 17:00:16;;;;;;;2.55;1.25;;;;;;;;;;6162502;23;20172;-88
2024/03/16 17:03:21;;;;;;;1.60;0.90;;;;;;;;;;6163311;23;20173;-89
2024/03/16 17:06:26;;;;;;;1.80;1.08;;;;;;;;;;6163485;23;20545;-90
2024/03/16 17:09:30;;;;;;;1.50;1.10;;;;;;;;;;6161534;23;20172;-88
2024/03/16 17:12:35;;;;;;;3.55;1.15;;;;;;;;;;6163908;23;20200;-89
2024/03/16 17:15:43;;;;;;;1.90;1.13;;;;;;;;;;6162943;23;20272;-87
2024/03/16 17:18:51;;;;;;;4.05;1.70;;;;;;;;;;6163849;23;20172;-88
2024/03/16 17:21:56;;;;;;;2.72;1.58;;;;;;;;;;6162744;23;20247;-88
2024/03/16 17:25:02;;;;;;;2.35;1.40;;;;;;;;;;6162011;23;20199;-88
2024/03/16 17:28:07;;;;;;;2.15;1.23;;;;;;;;;;6164698;23;20245;-89
2024/03/16 17:31:13;;;;;;;2.85;1.60;;;;;;;;;;6162179;23;20175;-88
2024/03/16 17:34:18;;;;;;;2.13;1.27;;;;;;;;;;6163961;23;20216;-88
2024/03/16 17:37:23;;;;;;;2.03;1.30;;;;;;;;;;6162512;23;20167;-89
2024/03/16 17:40:28;;;;;;;2.50;1.30;;;;;;;;;;6162759;23;20171;-88
2024/03/16 17:43:35;;;;;;;4.88;1.85;;;;;;;;;;6163315;23;20183;-90
2024/03/16 17:46:40;;;;;;;4.18;1.88;;;;;;;;;;6165449;23;20211;-88
2024/03/16 17:49:45;;;;;;;3.58;1.70;;;;;;;;;;6162681;23;20152;-89
2024/03/16 17:52:51;;;;;;;6.25;1.70;;;;;;;;;;6160448;23;20195;-88
2024/03/16 17:56:02;;;;;;;4.38;1.88;;;;;;;;;;6162902;23;20287;-89
2024/03/16 17:59:07;;;;;;;2.00;1.40;;;;;;;;;;6163906;23;20184;-86
2024/03/16 18:02:17;;;;;;;4.18;2.17;;;;;;;;;;6165631;23;20164;-88
2024/03/16 18:05:22;;;;;;;3.08;1.95;;;;;;;;;;6163023;23;20187;-90
2024/03/16 18:08:26;;;;;;;4.60;2.53;;;;;;;;;;6160253;23;20195;-88
2024/03/16 18:11:32;;;;;;;4.60;2.50;;;;;;;;;;6158940;23;20231;-88
2024/03/16 18:14:39;;;;;;;4.63;2.30;;;;;;;;;;6160037;23;20175;-89
2024/03/16 18:17:45;;;;;;;2.40;1.63;;;;;;;;;;6160602;23;20180;-89
2024/03/16 18:20:49;;;;;;;3.75;2.35;;;;;;;;;;6161425;23;20172;-89
2024/03/16 18:23:56;;;;;;;22.92;10.60;;;;;;;;;;6161158;23;20691;-89
2024/03/16 18:27:00;;;;;;;4.50;2.50;;;;;;;;;;6177825;23;20225;-89
2024/03/16 18:30:06;;;;;;;3.72;1.73;;;;;;;;;;6178736;23;20167;-88